Time;durP1;ratioP1;P1;durP2;ratioP2;P2;SDS_P1;SDS_P2;PMS_P1;PMS_P2;Temp;Humidity;BMP_temperature;BMP_pressure;BME280_temperature;BME280_humidity;BME280_pressure;Samples;Min_cycle;Max_cycle;Signal;HPM_P1;HPM_P2
2022/10/06 08:27:03;;;;;;;2.80;1.10;;;;;;;15.02;72.24;97901.28;2047102;27;1222985;-68
2022/10/06 08:28:05;;;;;;;22.73;2.30;;;;;;;15.04;73.03;97888.91;2099560;28;20467;-68
2022/10/06 08:29:06;;;;;;;2.67;1.20;;;;;;;15.12;72.29;97880.69;2094519;28;20199;-66
2022/10/06 08:30:10;;;;;;;7.65;1.38;;;;;;;15.22;72.44;97916.19;2091251;28;20379;-66
2022/10/06 08:57:30;;;;;;;14.75;1.50;;;;;;;15.76;69.82;97923.50;2078109;28;20576;-67
2022/10/06 08:58:49;;;;;;;8.35;1.40;;;;;;;15.94;68.95;97930.59;2089934;28;20241;-68
2022/10/06 08:59:54;;;;;;;7.03;1.60;;;;;;;15.87;69.58;97931.81;2080521;28;20223;-68
2022/10/06 09:01:18;;;;;;;11.27;1.50;;;;;;;16.03;69.44;97939.84;2074505;28;20243;-68
2022/10/06 09:02:44;;;;;;;6.60;1.75;;;;;;;16.25;69.61;97933.56;2073224;28;20221;-68
2022/10/06 09:03:48;;;;;;;7.13;1.52;;;;;;;16.43;68.51;97929.19;2071230;28;20209;-68
2022/10/06 09:04:49;;;;;;;8.88;1.75;;;;;;;16.49;67.50;97936.81;2072257;28;20277;-68
2022/10/06 09:06:07;;;;;;;6.15;1.45;;;;;;;16.36;67.68;97928.66;2072333;28;20631;-68
2022/10/06 09:07:11;;;;;;;7.22;1.70;;;;;;;16.68;67.12;97941.22;2070204;28;20973;-66
2022/10/06 09:08:37;;;;;;;8.70;1.73;;;;;;;16.84;66.58;97941.31;2085621;28;20197;-66
2022/10/06 09:09:47;;;;;;;9.43;1.33;;;;;;;16.91;66.37;97943.59;2074432;28;20255;-66
2022/10/06 09:11:26;;;;;;;9.45;1.75;;;;;;;17.23;66.12;97943.75;2078381;28;20712;-67
2022/10/06 09:12:50;;;;;;;7.15;1.27;;;;;;;17.10;64.62;97917.16;2069848;28;20247;-66
2022/10/06 09:14:20;;;;;;;11.93;1.98;;;;;;;17.43;64.24;97941.88;2077161;28;20223;-66
2022/10/06 09:15:37;;;;;;;13.95;1.50;;;;;;;17.64;63.46;97937.25;2065606;28;20311;-66
2022/10/06 09:16:45;;;;;;;13.07;2.28;;;;;;;17.67;63.24;97934.44;2072070;28;20302;-66
2022/10/06 09:17:53;;;;;;;6.68;1.30;;;;;;;17.74;63.03;97937.63;2072852;28;20210;-66
2022/10/06 09:19:03;;;;;;;17.15;2.15;;;;;;;17.72;62.58;97942.13;2074317;28;20284;-66
2022/10/06 09:20:35;;;;;;;4.90;1.13;;;;;;;17.54;63.13;97936.88;2074720;28;20704;-66
2022/10/06 09:21:48;;;;;;;9.75;1.70;;;;;;;17.23;63.65;97930.56;2065371;28;20240;-66
2022/10/06 09:22:50;;;;;;;3.95;1.40;;;;;;;17.27;64.20;97936.53;2090251;28;20208;-66
2022/10/06 09:23:55;;;;;;;4.45;1.20;;;;;;;17.67;63.14;97933.59;2082200;28;20634;-66
2022/10/06 09:25:21;;;;;;;10.95;3.08;;;;;;;17.83;62.66;97939.78;2071246;28;20198;-66
2022/10/06 09:26:28;;;;;;;12.68;2.05;;;;;;;18.01;62.52;97932.66;2072256;28;20205;-66
2022/10/06 09:27:33;;;;;;;6.68;1.20;;;;;;;18.22;62.19;97938.56;2077322;28;20703;-65
2022/10/06 09:28:35;;;;;;;7.82;1.40;;;;;;;18.15;61.77;97944.28;2088378;28;20200;-66
2022/10/06 09:29:37;;;;;;;8.13;1.40;;;;;;;17.92;62.53;97943.72;2073262;28;20293;-66
2022/10/06 09:30:40;;;;;;;4.85;1.30;;;;;;;17.82;63.46;97953.06;2073563;28;20641;-66
2022/10/06 09:31:47;;;;;;;14.88;1.50;;;;;;;17.57;63.90;97954.34;2074307;28;20208;-66
2022/10/06 10:28:16;;;;;;;8.60;2.10;;;;;;;16.79;66.42;97970.53;2085353;28;20567;-67
2022/10/06 10:29:21;;;;;;;7.50;1.33;;;;;;;16.75;66.44;97966.34;2084749;28;20239;-67
2022/10/06 10:30:22;;;;;;;11.23;1.70;;;;;;;17.16;65.39;97978.47;2082491;28;20594;-68
2022/10/06 10:31:47;;;;;;;8.90;1.50;;;;;;;17.16;65.00;97973.19;2083393;28;20199;-68
2022/10/06 10:32:59;;;;;;;5.30;1.25;;;;;;;17.61;63.84;97977.00;2074568;28;20249;-69
2022/10/06 10:34:33;;;;;;;10.10;1.85;;;;;;;17.54;62.70;97973.00;2074792;28;20292;-66
2022/10/06 10:35:45;;;;;;;6.28;1.58;;;;;;;17.44;63.29;97968.19;2074160;28;20403;-68
2022/10/06 10:36:58;;;;;;;6.18;1.30;;;;;;;17.63;62.99;97977.81;2066476;28;20293;-66
2022/10/06 10:38:07;;;;;;;7.18;1.65;;;;;;;17.54;62.41;97978.28;2082461;28;20280;-66
2022/10/06 10:39:31;;;;;;;9.63;2.20;;;;;;;17.90;61.90;97970.22;2075314;28;20283;-67
2022/10/06 10:40:54;;;;;;;7.47;1.50;;;;;;;17.72;62.57;97971.19;2075129;28;20232;-67
2022/10/06 10:42:03;;;;;;;5.88;1.95;;;;;;;18.05;61.35;97978.28;2068637;28;20618;-67
2022/10/06 10:43:30;;;;;;;4.93;1.40;;;;;;;18.24;59.76;97978.97;2081875;28;20291;-65
2022/10/06 10:51:21;;;;;;;6.60;1.80;;;;;;;18.86;58.40;97977.34;2073280;28;20200;-66
2022/10/06 10:52:26;;;;;;;8.27;1.77;;;;;;;19.24;56.02;97969.00;2069774;28;20320;-67
2022/10/06 10:53:42;;;;;;;12.70;1.60;;;;;;;19.20;54.65;97968.31;2081180;28;20747;-66
2022/10/06 10:55:02;;;;;;;7.43;1.33;;;;;;;19.58;54.33;97959.06;2075159;28;20289;-66
2022/10/06 10:56:07;;;;;;;6.93;1.73;;;;;;;20.61;52.72;97972.13;2069784;28;20198;-66
2022/10/06 10:57:15;;;;;;;12.50;2.05;;;;;;;20.83;53.08;97969.81;2062942;28;20229;-66
2022/10/06 10:58:22;;;;;;;6.45;1.30;;;;;;;21.21;50.85;97970.88;2078189;28;20227;-66
2022/10/06 10:59:35;;;;;;;7.13;1.25;;;;;;;21.81;50.20;97965.97;2073377;28;20202;-67
2022/10/06 11:00:41;;;;;;;4.18;1.10;;;;;;;21.59;50.32;97943.53;2074689;28;20205;-67
2022/10/06 11:01:51;;;;;;;10.32;1.48;;;;;;;22.72;47.64;97969.34;2072896;28;20198;-67
2022/10/06 11:02:57;;;;;;;9.68;1.58;;;;;;;23.32;46.42;97951.56;2074233;28;20194;-66
2022/10/06 11:03:59;;;;;;;9.90;1.60;;;;;;;24.36;44.36;97962.22;2074164;28;20194;-66
2022/10/06 11:05:11;;;;;;;6.45;1.50;;;;;;;24.76;42.65;97969.69;2075737;28;20209;-66
2022/10/06 11:06:27;;;;;;;12.05;1.35;;;;;;;24.64;42.29;97930.59;2072955;28;20351;-66
2022/10/06 11:07:54;;;;;;;8.07;2.15;;;;;;;25.27;42.27;97962.81;2069289;28;20263;-66
2022/10/06 11:09:11;;;;;;;9.48;1.85;;;;;;;24.16;44.62;97940.63;2080490;28;20284;-66
2022/10/06 11:10:24;;;;;;;5.25;1.10;;;;;;;24.26;43.35;97933.59;2072518;28;20832;-66
2022/10/06 11:11:44;;;;;;;7.38;1.30;;;;;;;24.94;43.31;97962.81;2074339;28;20652;-66
2022/10/06 11:13:19;;;;;;;7.65;1.50;;;;;;;26.04;41.62;97964.28;2074141;28;20303;-67
2022/10/06 11:21:12;;;;;;;9.77;1.48;;;;;;;21.75;49.67;97971.72;2074831;28;20224;-66
2022/10/06 11:22:16;;;;;;;9.27;1.65;;;;;;;22.30;49.30;97965.16;2065656;28;20838;-66
2022/10/06 11:23:52;;;;;;;5.70;1.40;;;;;;;22.09;48.88;97964.03;2080925;28;20197;-66
2022/10/06 11:25:15;;;;;;;13.90;1.98;;;;;;;21.40;50.43;97953.72;2079657;28;20251;-66
2022/10/06 11:26:38;;;;;;;13.40;1.63;;;;;;;21.53;51.49;97962.53;2077824;28;20241;-66
2022/10/06 11:27:46;;;;;;;10.25;1.55;;;;;;;21.50;50.58;97960.94;2076246;28;20237;-65
2022/10/06 11:28:50;;;;;;;10.52;1.50;;;;;;;20.96;51.67;97956.59;2070540;28;20230;-66
2022/10/06 11:30:18;;;;;;;4.07;1.33;;;;;;;22.37;48.49;97960.28;2071500;28;20221;-66
2022/10/06 11:31:25;;;;;;;10.85;1.52;;;;;;;22.72;47.49;97958.69;2067903;28;20267;-66
2022/10/06 11:39:18;;;;;;;6.82;1.17;;;;;;;24.79;42.29;97945.38;2070892;28;20344;-66
2022/10/06 11:40:46;;;;;;;11.18;2.50;;;;;;;25.13;40.35;97939.91;2066764;28;20871;-66
2022/10/06 11:42:09;;;;;;;10.57;1.55;;;;;;;25.44;40.44;97956.03;2061228;28;20343;-67
2022/10/06 11:43:39;;;;;;;8.68;1.20;;;;;;;25.82;39.84;97954.56;2072634;28;20232;-66
2022/10/06 11:44:46;;;;;;;7.28;1.70;;;;;;;25.81;39.56;97955.56;2067844;28;20326;-66
2022/10/06 11:46:04;;;;;;;5.50;1.10;;;;;;;24.87;41.23;97950.09;2067079;28;20209;-66
2022/10/06 11:47:15;;;;;;;8.75;1.63;;;;;;;25.18;40.95;97951.06;2067236;28;20355;-66
2022/10/06 11:48:28;;;;;;;6.10;1.60;;;;;;;24.98;42.00;97957.22;2066937;28;20381;-67
2022/10/06 11:49:31;;;;;;;8.13;1.48;;;;;;;25.16;42.26;97944.97;2068425;28;20261;-67
2022/10/06 11:57:22;;;;;;;11.13;1.73;;;;;;;25.95;39.73;97951.69;2063741;28;20235;-67
2022/10/06 11:58:51;;;;;;;11.25;1.35;;;;;;;26.62;39.21;97952.06;2075841;28;20288;-69
2022/10/06 11:59:54;;;;;;;7.13;1.80;;;;;;;27.18;38.99;97955.09;2066133;28;20202;-69
2022/10/06 12:00:56;;;;;;;10.32;1.60;;;;;;;27.30;38.48;97951.28;2066964;28;20260;-69
2022/10/06 12:02:00;;;;;;;6.38;1.40;;;;;;;27.38;38.72;97937.97;2063258;28;20356;-68
2022/10/06 12:03:27;;;;;;;9.70;1.65;;;;;;;26.03;39.48;97938.50;2072061;28;20193;-69
2022/10/06 12:04:28;;;;;;;5.22;2.08;;;;;;;25.21;41.26;97942.78;2067632;28;20206;-69
2022/10/06 12:05:31;;;;;;;6.15;1.35;;;;;;;25.98;40.06;97950.56;2068301;28;20201;-68
2022/10/06 12:06:57;;;;;;;6.75;1.40;;;;;;;25.93;39.44;97942.97;2061700;28;20205;-67
2022/10/06 12:08:01;;;;;;;5.63;1.15;;;;;;;26.24;39.09;97938.47;2076103;28;20198;-66
2022/10/06 12:09:23;;;;;;;11.10;6.30;;;;;;;26.78;37.84;97942.66;2071122;28;20241;-69
2022/10/06 12:10:27;;;;;;;23.90;14.48;;;;;;;26.85;37.89;97944.63;2068116;28;20588;-68
2022/10/06 12:11:40;;;;;;;43.17;24.80;;;;;;;27.21;36.99;97946.75;2067867;28;20202;-68
2022/10/06 12:12:43;;;;;;;18.05;10.80;;;;;;;27.91;35.76;97934.91;2069158;28;20297;-66
2022/10/06 12:13:54;;;;;;;11.18;1.85;;;;;;;28.28;36.00;97926.03;2069094;28;20197;-66
2022/10/06 12:15:26;;;;;;;7.65;1.52;;;;;;;27.89;36.39;97932.38;2074801;28;20201;-66
2022/10/06 12:16:53;;;;;;;8.52;1.70;;;;;;;24.96;40.27;97933.28;2067442;28;20276;-66
2022/10/06 12:18:26;;;;;;;10.73;1.60;;;;;;;25.74;39.70;97933.00;2067915;28;20259;-66
2022/10/06 12:19:37;;;;;;;7.22;1.58;;;;;;;25.61;40.04;97922.53;2069187;28;20225;-66
2022/10/06 12:20:57;;;;;;;8.57;1.30;;;;;;;25.80;39.73;97928.94;2068263;28;20890;-66
2022/10/06 12:22:23;;;;;;;11.43;2.28;;;;;;;22.75;44.93;97937.16;2061420;28;20796;-66
2022/10/06 12:23:49;;;;;;;7.28;1.70;;;;;;;23.57;44.78;97931.84;2074567;28;20244;-66
2022/10/06 12:25:05;;;;;;;5.78;1.30;;;;;;;24.43;43.68;97921.56;2067539;28;20352;-66
2022/10/06 12:26:42;;;;;;;5.82;1.50;;;;;;;24.38;43.10;97929.09;2067811;28;20254;-67
2022/10/06 12:28:02;;;;;;;10.35;2.17;;;;;;;24.58;45.20;97935.47;2042805;29;20286;-66
2022/10/06 12:29:30;;;;;;;10.65;2.00;;;;;;;25.08;43.40;97926.94;2043605;29;20203;-66
2022/10/06 12:31:19;;;;;;;8.43;1.70;;;;;;;25.11;42.37;97928.50;2065114;28;20213;-66
2022/10/06 12:32:31;;;;;;;8.80;1.77;;;;;;;23.07;46.38;97920.56;2065176;28;20251;-66
2022/10/06 12:33:41;;;;;;;10.68;1.92;;;;;;;23.38;46.32;97923.59;2077093;28;20227;-66
2022/10/06 12:35:01;;;;;;;10.85;1.70;;;;;;;22.86;46.59;97921.22;2069177;28;20280;-66
2022/10/06 12:36:15;;;;;;;9.05;1.80;;;;;;;23.00;46.82;97926.34;2067374;28;20198;-66
2022/10/06 12:37:28;;;;;;;9.15;1.80;;;;;;;23.29;47.09;97928.66;2067338;28;20237;-66
2022/10/06 12:38:29;;;;;;;9.50;1.85;;;;;;;23.40;47.39;97924.31;2067603;28;20289;-66
2022/10/06 12:39:31;;;;;;;9.63;1.52;;;;;;;23.35;46.99;97919.34;2072039;28;20209;-66
2022/10/06 12:40:48;;;;;;;10.30;1.85;;;;;;;22.96;47.61;97929.38;2071850;28;20553;-65
2022/10/06 12:42:00;;;;;;;13.48;2.20;;;;;;;22.82;47.79;97928.59;2059926;28;20308;-66
2022/10/06 12:43:13;;;;;;;4.45;2.00;;;;;;;22.83;48.23;97932.94;2075731;28;20208;-66
2022/10/06 12:51:11;;;;;;;11.88;2.28;;;;;;;23.76;46.33;97917.09;2067229;28;20249;-66
2022/10/06 12:52:33;;;;;;;13.82;2.60;;;;;;;23.42;47.43;97922.38;2063290;28;20311;-66
2022/10/06 12:53:46;;;;;;;8.43;1.73;;;;;;;23.12;47.36;97931.72;2047245;29;20298;-66
2022/10/06 12:55:15;;;;;;;13.32;2.10;;;;;;;22.94;46.89;97918.84;2066094;28;20235;-66
2022/10/06 12:56:30;;;;;;;10.40;1.98;;;;;;;23.75;46.11;97915.41;2068521;28;20225;-66
2022/10/06 12:57:44;;;;;;;4.80;1.38;;;;;;;23.44;45.74;97917.81;2066805;28;20233;-66
2022/10/06 12:58:46;;;;;;;15.18;2.25;;;;;;;22.69;47.66;97908.31;2073722;28;20201;-66
2022/10/06 12:59:48;;;;;;;13.70;2.00;;;;;;;24.28;45.17;97912.97;2072731;28;20712;-66
2022/10/06 13:00:50;;;;;;;7.05;1.73;;;;;;;23.88;45.72;97908.09;2068371;28;20245;-66
2022/10/06 13:01:58;;;;;;;5.38;1.40;;;;;;;22.89;46.60;97912.16;2060493;28;20257;-66
2022/10/06 13:08:06;;;;;;;10.23;1.52;;;;;;;23.51;46.15;97908.34;2064553;28;20232;-66
2022/10/06 13:09:13;;;;;;;6.78;1.55;;;;;;;22.81;48.35;97918.91;2068215;28;20331;-66
2022/10/06 13:10:20;;;;;;;7.85;1.75;;;;;;;22.33;49.13;97910.88;2064908;28;20647;-66
2022/10/06 13:11:25;;;;;;;8.63;1.73;;;;;;;22.35;48.54;97890.34;2067585;28;20341;-65
2022/10/06 13:12:31;;;;;;;11.07;1.48;;;;;;;22.46;49.15;97910.84;2063609;28;20792;-68
2022/10/06 13:13:33;;;;;;;6.00;1.42;;;;;;;22.52;48.94;97912.22;2075381;28;20289;-65
2022/10/06 13:14:35;;;;;;;8.95;1.80;;;;;;;22.25;49.59;97914.09;2070086;28;20206;-65
2022/10/06 13:15:42;;;;;;;6.38;2.42;;;;;;;22.18;50.50;97910.16;2067556;28;20693;-65
2022/10/06 13:16:47;;;;;;;6.78;1.70;;;;;;;22.18;50.03;97918.16;2063611;28;20293;-65
2022/10/06 13:17:58;;;;;;;6.72;1.73;;;;;;;22.16;49.94;97910.28;2064642;28;20203;-65
2022/10/06 13:19:00;;;;;;;8.38;2.17;;;;;;;21.56;51.20;97911.00;2068932;28;20210;-65
2022/10/06 13:20:01;;;;;;;24.38;3.15;;;;;;;20.98;52.29;97896.28;2069709;28;20236;-65
2022/10/06 13:21:10;;;;;;;11.95;1.98;;;;;;;21.59;51.19;97897.53;2070513;28;20314;-65
2022/10/06 13:22:13;;;;;;;10.75;2.42;;;;;;;21.83;50.62;97905.59;2059186;28;20359;-65
2022/10/06 13:23:28;;;;;;;18.13;1.73;;;;;;;21.88;50.82;97906.09;2066176;28;20815;-65
2022/10/06 13:24:30;;;;;;;20.55;2.40;;;;;;;21.90;50.51;97901.50;2067182;28;20280;-65
2022/10/06 13:25:35;;;;;;;10.45;1.85;;;;;;;21.28;52.01;97910.22;2066485;28;20199;-65
2022/10/06 13:32:06;;;;;;;12.23;1.95;;;;;;;21.87;50.80;97907.06;2066951;28;20230;-65
2022/10/06 13:33:08;;;;;;;8.52;1.88;;;;;;;23.64;47.40;97902.91;2067642;28;20245;-65
2022/10/06 13:34:12;;;;;;;16.73;2.40;;;;;;;23.42;47.36;97904.56;2068982;28;20240;-65
2022/10/06 13:35:22;;;;;;;8.55;2.10;;;;;;;23.15;47.46;97892.41;2065897;28;20855;-67
2022/10/06 13:36:24;;;;;;;9.63;2.00;;;;;;;24.04;46.00;97901.59;2068232;28;20242;-65
2022/10/06 13:37:30;;;;;;;7.80;1.52;;;;;;;24.04;45.77;97901.59;2063513;28;20304;-65
2022/10/06 13:38:34;;;;;;;11.07;1.80;;;;;;;24.21;45.55;97895.75;2071674;28;20633;-65
2022/10/06 13:39:36;;;;;;;11.82;1.65;;;;;;;24.29;45.55;97905.81;2067199;28;20577;-66
2022/10/06 13:40:37;;;;;;;9.80;1.63;;;;;;;24.80;44.70;97891.00;2066423;28;20926;-65
2022/10/06 13:42:19;;;;;;;43.88;4.50;;;;;;;24.78;45.18;97906.28;2058197;28;20645;-65
2022/10/06 13:43:23;;;;;;;10.32;2.13;;;;;;;24.28;44.97;97907.63;2074406;28;20284;-65
2022/10/06 13:44:38;;;;;;;14.60;2.53;;;;;;;24.54;44.96;97904.63;2069380;28;20224;-65
2022/10/06 13:45:43;;;;;;;8.05;2.03;;;;;;;24.55;44.28;97902.84;2066561;28;20288;-66
2022/10/06 13:46:49;;;;;;;6.05;1.45;;;;;;;25.12;43.57;97902.63;2059160;28;20328;-68
2022/10/06 13:48:13;;;;;;;9.48;2.58;;;;;;;25.14;42.98;97904.19;2073407;28;20276;-68
2022/10/06 13:49:23;;;;;;;5.40;1.30;;;;;;;24.57;44.22;97896.41;2069624;28;20221;-68
2022/10/06 13:50:25;;;;;;;11.90;2.17;;;;;;;24.81;44.12;97907.88;2065928;28;20281;-68
2022/10/06 13:51:29;;;;;;;9.07;1.90;;;;;;;24.08;44.08;97903.88;2068790;28;20293;-65
2022/10/06 13:52:35;;;;;;;7.35;1.35;;;;;;;23.99;45.03;97903.81;2070015;28;20687;-65
2022/10/06 13:53:36;;;;;;;12.48;1.70;;;;;;;24.07;45.22;97907.53;2070357;28;20631;-66
2022/10/06 13:54:40;;;;;;;10.65;1.70;;;;;;;24.06;45.36;97902.31;2064239;28;20285;-66
2022/10/06 13:55:48;;;;;;;6.85;1.63;;;;;;;23.89;45.64;97903.66;2067511;28;20305;-65
2022/10/06 13:56:50;;;;;;;12.68;1.98;;;;;;;23.29;46.31;97898.50;2057494;28;20676;-66
2022/10/06 13:57:59;;;;;;;11.18;2.50;;;;;;;22.41;47.56;97902.38;2072966;28;20237;-66
2022/10/06 13:59:37;;;;;;;11.48;2.47;;;;;;;21.55;50.42;97899.53;2070895;28;20628;-66
2022/10/06 14:00:53;;;;;;;12.07;2.17;;;;;;;21.70;50.47;97902.94;2066236;28;20675;-66
2022/10/06 14:01:55;;;;;;;7.93;1.77;;;;;;;22.17;49.41;97897.84;2060194;28;20419;-65
2022/10/06 14:08:06;;;;;;;7.50;2.08;;;;;;;21.23;51.58;97896.41;2063235;28;20221;-66
2022/10/06 14:09:12;;;;;;;6.40;1.75;;;;;;;21.04;52.78;97890.56;2073161;28;20273;-66
2022/10/06 14:10:19;;;;;;;9.95;1.90;;;;;;;21.12;52.53;97889.19;2063982;28;20203;-65
2022/10/06 14:11:28;;;;;;;8.20;1.73;;;;;;;20.73;53.63;97894.41;2067496;28;20550;-66
2022/10/06 14:12:31;;;;;;;7.43;1.50;;;;;;;20.23;54.11;97889.63;2066774;28;20737;-66
2022/10/06 14:14:02;;;;;;;4.75;1.67;;;;;;;20.77;53.91;97890.59;2070749;28;20201;-66
2022/10/06 14:15:04;;;;;;;11.52;2.17;;;;;;;20.92;52.64;97891.38;2067322;28;20608;-66
2022/10/06 14:16:09;;;;;;;18.50;2.47;;;;;;;20.77;52.70;97887.94;2067678;28;20327;-66
2022/10/06 14:17:21;;;;;;;14.15;1.98;;;;;;;20.60;53.37;97893.50;2062963;28;20229;-65
2022/10/06 14:18:35;;;;;;;7.75;1.40;;;;;;;20.57;53.60;97894.56;2066458;28;20745;-65
2022/10/06 14:19:40;;;;;;;17.60;2.85;;;;;;;20.51;53.89;97879.03;2067575;28;20280;-65
2022/10/06 14:20:46;;;;;;;5.78;1.55;;;;;;;20.16;54.42;97891.00;2064109;28;20198;-65
2022/10/06 14:21:47;;;;;;;8.20;1.70;;;;;;;20.23;54.53;97863.09;2056088;28;20234;-65
2022/10/06 14:22:49;;;;;;;15.05;2.15;;;;;;;20.42;54.66;97882.28;2066331;28;20202;-65
2022/10/06 14:23:52;;;;;;;13.73;2.03;;;;;;;20.55;54.56;97878.72;2071996;28;20240;-65
2022/10/06 14:24:54;;;;;;;7.57;1.90;;;;;;;20.79;54.20;97888.69;2067350;28;20292;-65
2022/10/06 14:25:55;;;;;;;12.25;2.13;;;;;;;21.34;52.88;97878.81;2067441;28;20292;-66
2022/10/06 14:27:03;;;;;;;15.30;1.98;;;;;;;21.60;51.67;97889.44;2061873;28;20272;-66
2022/10/06 14:28:04;;;;;;;17.80;3.05;;;;;;;21.56;52.60;97882.66;2074269;28;20633;-66
2022/10/06 14:29:06;;;;;;;11.48;2.05;;;;;;;20.94;53.34;97878.00;2071604;28;20210;-66
2022/10/06 14:30:08;;;;;;;7.55;2.17;;;;;;;21.18;52.39;97888.78;2063928;28;20237;-65
2022/10/06 14:31:10;;;;;;;13.00;2.00;;;;;;;21.00;52.79;97881.09;2064934;28;20305;-65
2022/10/06 14:39:05;;;;;;;7.75;1.98;;;;;;;20.64;54.70;97876.41;2072206;28;20297;-66
2022/10/06 14:40:07;;;;;;;9.05;1.95;;;;;;;20.42;53.69;97871.66;2068137;28;20198;-66
2022/10/06 14:41:13;;;;;;;9.13;2.00;;;;;;;20.70;54.13;97879.53;2067203;28;20562;-65
2022/10/06 14:42:23;;;;;;;7.07;1.67;;;;;;;20.99;53.50;97871.44;2062177;28;20221;-65
2022/10/06 14:43:24;;;;;;;8.68;1.95;;;;;;;20.90;53.85;97880.03;2067027;28;20202;-66
2022/10/06 14:44:29;;;;;;;6.60;1.70;;;;;;;20.92;53.73;97877.25;2068054;28;20276;-66
2022/10/06 14:45:34;;;;;;;8.65;2.17;;;;;;;21.04;53.71;97871.13;2065354;28;20565;-65
2022/10/06 14:46:37;;;;;;;9.75;1.85;;;;;;;20.77;53.56;97872.00;2064546;28;20224;-65
2022/10/06 14:47:39;;;;;;;16.58;2.63;;;;;;;20.84;53.30;97865.34;2067402;28;20557;-65
2022/10/06 14:48:40;;;;;;;11.95;1.95;;;;;;;20.78;53.57;97868.41;2067740;28;20289;-65
2022/10/06 14:49:44;;;;;;;9.05;1.48;;;;;;;20.47;54.54;97869.59;2066537;28;20731;-66
2022/10/06 14:50:45;;;;;;;10.45;2.78;;;;;;;20.29;54.52;97871.63;2066147;28;20225;-66
2022/10/06 14:51:47;;;;;;;9.85;1.90;;;;;;;20.31;54.50;97870.56;2057337;28;20289;-65
2022/10/06 14:52:48;;;;;;;7.57;1.90;;;;;;;20.17;54.60;97870.63;2074801;28;20604;-65
2022/10/06 14:53:54;;;;;;;7.15;1.42;;;;;;;20.12;54.75;97864.75;2070062;28;20289;-66
2022/10/06 14:54:56;;;;;;;13.50;2.50;;;;;;;19.82;54.67;97799.47;2067066;28;20278;-65
2022/10/06 14:56:07;;;;;;;5.50;2.05;;;;;;;19.92;55.99;97864.22;2059423;28;20286;-67
2022/10/06 14:57:08;;;;;;;13.73;2.20;;;;;;;19.69;56.01;97874.47;2050342;28;20215;-67
2022/10/06 14:58:10;;;;;;;11.90;1.90;;;;;;;19.66;56.28;97855.25;2064236;28;20284;-67
2022/10/06 14:59:15;;;;;;;6.43;1.42;;;;;;;19.47;56.18;97874.09;2067391;28;20749;-68
2022/10/06 15:00:19;;;;;;;4.97;1.30;;;;;;;19.40;57.26;97865.63;2066410;28;20205;-67
2022/10/06 15:01:25;;;;;;;9.02;2.22;;;;;;;19.84;56.38;97877.13;2064011;28;20226;-67
2022/10/06 15:09:05;;;;;;;9.20;1.80;;;;;;;19.71;55.78;97847.88;2070193;28;20314;-67
2022/10/06 15:10:07;;;;;;;11.88;2.03;;;;;;;19.76;56.45;97872.28;2065964;28;20204;-67
2022/10/06 15:11:08;;;;;;;9.98;1.52;;;;;;;19.71;56.67;97861.13;2066516;28;20655;-67
2022/10/06 15:12:10;;;;;;;15.75;1.65;;;;;;;19.68;56.83;97866.59;2063032;28;20312;-67
2022/10/06 15:13:11;;;;;;;12.18;1.73;;;;;;;19.42;56.43;97830.16;2067352;28;20261;-68
2022/10/06 15:14:13;;;;;;;13.70;2.08;;;;;;;19.49;56.42;97865.09;2068222;28;20566;-65
2022/10/06 15:15:15;;;;;;;10.70;1.42;;;;;;;19.33;56.79;97867.81;2069513;28;20261;-65
2022/10/06 15:16:16;;;;;;;13.82;1.70;;;;;;;18.95;57.58;97864.84;2062683;28;20709;-65
2022/10/06 15:17:23;;;;;;;7.57;1.45;;;;;;;18.71;58.25;97860.84;2060334;28;20260;-67
2022/10/06 15:18:25;;;;;;;7.15;2.72;;;;;;;18.74;58.07;97868.63;2076705;28;20197;-68
2022/10/06 15:19:27;;;;;;;8.18;2.05;;;;;;;18.28;58.96;97863.34;2068954;28;20230;-67
2022/10/06 15:32:04;;;;;;;5.07;1.70;;;;;;;18.59;60.53;97856.31;2060542;28;20182;-66
2022/10/06 15:33:07;;;;;;;13.23;1.90;;;;;;;18.33;61.45;97848.06;2075884;28;20228;-66
2022/10/06 15:34:11;;;;;;;9.52;1.95;;;;;;;18.24;60.70;97845.94;2073591;28;20234;-67
2022/10/06 15:35:13;;;;;;;12.10;1.88;;;;;;;18.10;61.75;97850.22;2069217;28;20344;-66
2022/10/06 15:36:17;;;;;;;11.80;1.50;;;;;;;18.19;61.75;97840.91;2065354;28;20608;-66
2022/10/06 15:37:19;;;;;;;11.90;1.88;;;;;;;18.49;60.83;97839.28;2062682;28;20332;-66
2022/10/06 15:38:21;;;;;;;9.43;1.45;;;;;;;18.53;60.38;97840.78;2067241;28;20194;-66
2022/10/06 15:39:24;;;;;;;5.55;1.75;;;;;;;18.65;60.05;97841.84;2068373;28;20280;-66
2022/10/06 15:40:26;;;;;;;17.52;1.70;;;;;;;18.60;60.50;97836.81;2065282;28;20286;-66
2022/10/06 15:41:27;;;;;;;14.82;2.00;;;;;;;18.64;60.72;97845.44;2066133;28;20297;-67
2022/10/06 15:42:28;;;;;;;9.45;1.55;;;;;;;18.58;60.81;97841.38;2065109;28;20320;-66
2022/10/06 15:43:53;;;;;;;6.72;2.20;;;;;;;18.28;61.43;97831.63;2076165;28;20197;-66
2022/10/06 15:44:52;;;;;;;19.58;2.80;;;;;;;18.03;61.87;97837.44;2070171;28;20236;-66
2022/10/06 15:45:54;;;;;;;9.25;1.80;;;;;;;18.24;61.92;97844.16;2065270;28;20297;-66
2022/10/06 15:46:56;;;;;;;9.07;1.83;;;;;;;17.94;62.15;97837.03;2058663;28;20222;-66
2022/10/06 15:47:57;;;;;;;10.75;2.15;;;;;;;17.98;61.42;97837.72;2077222;28;20201;-66
2022/10/06 15:49:04;;;;;;;31.70;6.47;;;;;;;18.10;61.21;97838.81;2070220;28;20230;-66
2022/10/06 15:50:06;;;;;;;129.95;70.05;;;;;;;18.17;61.43;97852.53;2066691;28;20665;-66
2022/10/06 15:51:08;;;;;;;22.75;6.32;;;;;;;18.16;61.60;97837.63;2067310;28;20790;-68
2022/10/06 15:52:11;;;;;;;12.25;5.05;;;;;;;18.14;62.06;97836.84;2062353;28;20245;-67
2022/10/06 15:53:13;;;;;;;38.53;15.43;;;;;;;17.87;63.05;97822.41;2072323;28;20225;-67
2022/10/06 15:54:29;;;;;;;30.90;9.90;;;;;;;18.05;62.80;97840.84;2068038;28;20206;-67
2022/10/06 15:55:30;;;;;;;10.85;3.50;;;;;;;18.06;62.37;97840.75;2067255;28;20201;-66
2022/10/06 15:56:32;;;;;;;13.82;2.33;;;;;;;17.73;62.31;97828.47;2067762;28;20632;-66
2022/10/06 15:57:34;;;;;;;7.57;1.92;;;;;;;17.97;61.88;97843.06;2062162;28;20229;-67
2022/10/06 15:58:35;;;;;;;8.20;1.63;;;;;;;17.81;61.95;97824.56;2063847;28;20262;-66
2022/10/06 15:59:38;;;;;;;10.95;1.95;;;;;;;17.83;61.81;97831.44;2066175;28;20233;-67
2022/10/06 16:00:44;;;;;;;8.73;1.92;;;;;;;17.95;61.71;97844.03;2068106;28;20282;-66
2022/10/06 16:01:46;;;;;;;7.72;1.67;;;;;;;17.93;62.11;97842.38;2058207;28;20290;-67
2022/10/06 16:08:03;;;;;;;4.10;1.85;;;;;;;17.88;64.13;97844.41;2064361;28;20224;-67
2022/10/06 16:09:05;;;;;;;10.52;4.57;;;;;;;17.87;63.78;97832.13;2073319;28;20653;-67
2022/10/06 16:10:07;;;;;;;14.43;6.90;;;;;;;17.70;64.38;97828.63;2068663;28;20673;-66
2022/10/06 16:11:09;;;;;;;19.58;7.70;;;;;;;17.70;64.62;97838.34;2065019;28;20199;-67
2022/10/06 16:12:14;;;;;;;20.85;8.32;;;;;;;17.70;63.86;97841.84;2055910;28;20309;-67
2022/10/06 16:13:16;;;;;;;19.25;7.72;;;;;;;17.66;64.43;97844.72;2060139;28;20649;-67
2022/10/06 16:14:17;;;;;;;23.23;7.28;;;;;;;17.60;64.04;97838.84;2066348;28;20203;-67
2022/10/06 16:15:19;;;;;;;13.93;5.32;;;;;;;17.64;64.48;97844.81;2065862;28;20640;-67
2022/10/06 16:16:20;;;;;;;12.77;4.88;;;;;;;17.65;64.85;97845.66;2069158;28;20206;-67
2022/10/06 16:17:22;;;;;;;10.60;3.53;;;;;;;17.58;65.28;97839.88;2062853;28;20249;-67
2022/10/06 16:18:23;;;;;;;12.98;3.40;;;;;;;17.40;65.28;97831.16;2069261;28;20279;-67
2022/10/06 16:19:26;;;;;;;16.95;2.80;;;;;;;17.42;64.75;97830.13;2069817;28;20769;-67
2022/10/06 16:20:28;;;;;;;8.75;2.55;;;;;;;17.51;64.78;97849.91;2068516;28;20199;-67
2022/10/06 16:21:31;;;;;;;13.35;2.35;;;;;;;17.47;65.22;97843.06;2070874;28;20201;-67
2022/10/06 16:22:32;;;;;;;9.23;2.15;;;;;;;17.40;65.76;97845.19;2066360;28;20252;-67
2022/10/06 16:23:33;;;;;;;7.25;1.67;;;;;;;17.35;66.10;97835.81;2075212;28;20197;-67
2022/10/06 16:24:35;;;;;;;8.23;1.48;;;;;;;17.30;66.25;97831.63;2068347;28;20313;-67
2022/10/06 16:25:36;;;;;;;7.45;1.92;;;;;;;17.23;66.28;97843.47;2068180;28;20194;-66
2022/10/06 16:26:38;;;;;;;4.93;1.65;;;;;;;17.28;65.62;97845.84;2058260;28;20229;-66
2022/10/06 16:27:39;;;;;;;6.93;1.35;;;;;;;17.23;65.60;97851.38;2072106;28;20221;-67
2022/10/06 16:28:41;;;;;;;10.70;1.80;;;;;;;17.26;65.23;97851.19;2072163;28;20236;-67
2022/10/06 16:29:42;;;;;;;7.65;2.15;;;;;;;17.24;65.15;97849.56;2068392;28;20301;-67
2022/10/06 16:30:53;;;;;;;8.57;1.63;;;;;;;17.23;65.48;97843.47;2069817;28;20289;-67